Time;durP1;ratioP1;P1;durP2;ratioP2;P2;SDS_P1;SDS_P2;PMS_P1;PMS_P2;Temp;Humidity;BMP_temperature;BMP_pressure;BME280_temperature;BME280_humidity;BME280_pressure;Samples;Min_cycle;Max_cycle;Signal;HPM_P1;HPM_P2
2022/07/13 00:01:32;;;;;;;1.83;1.63;;;;;;;;;;5028592;28;20034;-56
2022/07/13 00:03:57;;;;;;;2.08;1.45;;;;;;;;;;5029046;28;20017;-56
2022/07/13 00:06:23;;;;;;;2.67;1.40;;;;;;;;;;5026058;28;20462;-56
2022/07/13 00:08:48;;;;;;;1.27;1.17;;;;;;;;;;5026426;28;20407;-56
2022/07/13 00:11:14;;;;;;;2.22;1.30;;;;;;;;;;5026696;28;20403;-55
2022/07/13 00:13:39;;;;;;;1.65;1.33;;;;;;;;;;5030247;28;20396;-55
2022/07/13 00:16:05;;;;;;;4.13;1.27;;;;;;;;;;5027328;28;20087;-56
2022/07/13 00:18:30;;;;;;;1.70;1.42;;;;;;;;;;5025378;28;20049;-56
2022/07/13 00:20:57;;;;;;;2.15;1.33;;;;;;;;;;5025082;28;20021;-56
2022/07/13 00:23:23;;;;;;;1.38;1.27;;;;;;;;;;5026609;28;20041;-57
2022/07/13 00:25:48;;;;;;;1.35;1.25;;;;;;;;;;5024829;28;20033;-56
2022/07/13 00:28:13;;;;;;;1.70;1.60;;;;;;;;;;5023766;28;20030;-56
2022/07/13 00:30:39;;;;;;;1.55;1.45;;;;;;;;;;5021551;28;20514;-57
2022/07/13 00:33:05;;;;;;;1.83;1.50;;;;;;;;;;5024437;28;20079;-56
2022/07/13 00:35:30;;;;;;;2.58;1.60;;;;;;;;;;5027541;28;20454;-56
2022/07/13 00:37:56;;;;;;;1.92;1.50;;;;;;;;;;5020923;28;20049;-56
2022/07/13 00:40:21;;;;;;;1.60;1.50;;;;;;;;;;5019511;28;20041;-56
2022/07/13 00:42:47;;;;;;;3.97;1.48;;;;;;;;;;5027409;28;20033;-55
2022/07/13 00:45:12;;;;;;;2.05;1.65;;;;;;;;;;5020821;28;20056;-56
2022/07/13 00:47:38;;;;;;;2.78;1.60;;;;;;;;;;5019918;28;20123;-55
2022/07/13 00:50:06;;;;;;;2.35;1.48;;;;;;;;;;5020172;28;20057;-54
2022/07/13 00:52:36;;;;;;;2.38;1.40;;;;;;;;;;5024103;28;20021;-55
2022/07/13 00:55:02;;;;;;;2.10;1.65;;;;;;;;;;5020698;28;20108;-55
2022/07/13 00:57:28;;;;;;;1.58;1.48;;;;;;;;;;5028047;28;20087;-56
2022/07/13 00:59:54;;;;;;;4.05;1.60;;;;;;;;;;5023567;28;20025;-56
2022/07/13 01:02:20;;;;;;;1.60;1.50;;;;;;;;;;5028379;28;20173;-56
2022/07/13 01:04:46;;;;;;;1.67;1.58;;;;;;;;;;5027156;28;20025;-55
2022/07/13 01:07:12;;;;;;;2.00;1.30;;;;;;;;;;5028634;28;20494;-55
2022/07/13 01:09:37;;;;;;;1.98;1.80;;;;;;;;;;5028257;28;20104;-56
2022/07/13 01:12:05;;;;;;;1.88;1.40;;;;;;;;;;5030211;28;20164;-55
2022/07/13 01:14:30;;;;;;;1.50;1.40;;;;;;;;;;5030412;28;20033;-55
2022/07/13 01:16:56;;;;;;;2.85;1.50;;;;;;;;;;5030254;28;20032;-55
2022/07/13 01:19:23;;;;;;;4.68;1.63;;;;;;;;;;5029434;28;20013;-56
2022/07/13 01:21:54;;;;;;;1.67;1.58;;;;;;;;;;5030803;28;20487;-56
2022/07/13 01:24:20;;;;;;;2.13;1.60;;;;;;;;;;5028686;28;20030;-57
2022/07/13 01:26:46;;;;;;;2.28;1.70;;;;;;;;;;5027594;28;20083;-56
2022/07/13 01:29:11;;;;;;;3.33;1.65;;;;;;;;;;5027014;28;20033;-56
2022/07/13 01:31:39;;;;;;;1.63;1.52;;;;;;;;;;5032133;28;20029;-56
2022/07/13 01:34:05;;;;;;;3.55;1.70;;;;;;;;;;5031659;28;20029;-56
2022/07/13 01:36:32;;;;;;;1.70;1.60;;;;;;;;;;5025432;28;20033;-56
2022/07/13 01:38:57;;;;;;;2.47;1.55;;;;;;;;;;5021938;28;20025;-56
2022/07/13 01:41:25;;;;;;;4.40;1.50;;;;;;;;;;5024881;28;20090;-57
2022/07/13 01:43:52;;;;;;;2.00;1.77;;;;;;;;;;5026426;28;20025;-56
2022/07/13 01:46:17;;;;;;;2.72;1.90;;;;;;;;;;5028615;28;20112;-56
2022/07/13 01:48:43;;;;;;;1.90;1.70;;;;;;;;;;5023227;28;20118;-56
2022/07/13 01:51:08;;;;;;;2.05;1.85;;;;;;;;;;5026075;28;20072;-56
2022/07/13 01:53:33;;;;;;;2.30;2.10;;;;;;;;;;5024902;28;20390;-56
2022/07/13 01:55:59;;;;;;;1.70;1.60;;;;;;;;;;5030341;28;20041;-55
2022/07/13 01:58:26;;;;;;;1.73;1.60;;;;;;;;;;5029333;28;20028;-55
2022/07/13 02:00:52;;;;;;;2.08;1.88;;;;;;;;;;5030750;28;20055;-55
2022/07/13 02:03:17;;;;;;;1.92;1.83;;;;;;;;;;5030801;28;20123;-56
2022/07/13 02:05:42;;;;;;;2.53;1.70;;;;;;;;;;5029081;28;20028;-56
2022/07/13 02:08:08;;;;;;;2.45;1.90;;;;;;;;;;5027637;28;20026;-56
2022/07/13 02:10:36;;;;;;;1.95;1.80;;;;;;;;;;5027931;28;20112;-56
2022/07/13 02:13:06;;;;;;;2.05;1.50;;;;;;;;;;5027724;28;20029;-55
2022/07/13 02:15:32;;;;;;;2.13;1.92;;;;;;;;;;5024973;28;20492;-56
2022/07/13 02:17:57;;;;;;;2.10;1.90;;;;;;;;;;5025876;28;20089;-57
2022/07/13 02:20:23;;;;;;;2.35;1.80;;;;;;;;;;5027279;28;20038;-56
2022/07/13 02:22:48;;;;;;;2.67;1.73;;;;;;;;;;5030662;28;20033;-55
2022/07/13 02:25:14;;;;;;;3.35;1.85;;;;;;;;;;5027573;28;20033;-55
2022/07/13 02:27:43;;;;;;;3.25;1.95;;;;;;;;;;5027618;28;20036;-56
2022/07/13 02:30:11;;;;;;;5.45;2.05;;;;;;;;;;5025204;28;20517;-56
2022/07/13 02:32:36;;;;;;;2.92;1.88;;;;;;;;;;5024177;28;20041;-56
2022/07/13 02:35:02;;;;;;;2.88;1.65;;;;;;;;;;5025205;28;20175;-55
2022/07/13 02:37:27;;;;;;;1.88;1.77;;;;;;;;;;5030216;28;20055;-56
2022/07/13 02:39:55;;;;;;;4.10;2.13;;;;;;;;;;5023279;28;20526;-56
2022/07/13 02:42:22;;;;;;;6.13;2.10;;;;;;;;;;5025011;28;20467;-56
2022/07/13 02:44:49;;;;;;;1.70;1.60;;;;;;;;;;5029429;28;20660;-55
2022/07/13 02:47:14;;;;;;;2.15;1.90;;;;;;;;;;5027908;28;20039;-57
2022/07/13 02:49:40;;;;;;;2.10;1.90;;;;;;;;;;5028524;28;20022;-56
2022/07/13 02:52:06;;;;;;;2.10;1.90;;;;;;;;;;5028918;28;20479;-56
2022/07/13 02:54:32;;;;;;;2.00;1.80;;;;;;;;;;5023273;28;20033;-56
2022/07/13 02:56:57;;;;;;;2.53;1.95;;;;;;;;;;5029604;28;20029;-55
2022/07/13 02:59:22;;;;;;;3.70;2.30;;;;;;;;;;5028646;28;20040;-56
2022/07/13 03:01:48;;;;;;;2.92;1.88;;;;;;;;;;5028541;28;20025;-55
2022/07/13 03:04:13;;;;;;;2.85;2.30;;;;;;;;;;5028822;28;20025;-55
2022/07/13 03:06:38;;;;;;;2.42;2.05;;;;;;;;;;5026920;28;20056;-55
2022/07/13 03:09:04;;;;;;;2.92;2.10;;;;;;;;;;5025295;28;20113;-57
2022/07/13 03:11:29;;;;;;;2.15;1.95;;;;;;;;;;5026442;28;20021;-55
2022/07/13 03:13:55;;;;;;;2.92;2.00;;;;;;;;;;5027489;28;20471;-55
2022/07/13 03:16:20;;;;;;;2.28;1.83;;;;;;;;;;5025619;28;20032;-55
2022/07/13 03:18:45;;;;;;;2.33;2.13;;;;;;;;;;5027144;28;20064;-55
2022/07/13 03:21:11;;;;;;;3.85;1.98;;;;;;;;;;5022993;28;20353;-55
2022/07/13 03:23:36;;;;;;;2.50;2.13;;;;;;;;;;5026232;28;20036;-55
2022/07/13 03:26:02;;;;;;;3.40;2.05;;;;;;;;;;5024722;28;20479;-57
2022/07/13 03:28:28;;;;;;;3.03;2.20;;;;;;;;;;5023017;28;20038;-55
2022/07/13 03:30:53;;;;;;;2.50;2.30;;;;;;;;;;5024018;28;20045;-56
2022/07/13 03:33:18;;;;;;;3.55;2.70;;;;;;;;;;5027958;28;20037;-56
2022/07/13 03:35:44;;;;;;;2.80;2.60;;;;;;;;;;5025104;28;20033;-55
2022/07/13 03:38:09;;;;;;;2.40;2.20;;;;;;;;;;5027149;28;20108;-56
2022/07/13 03:40:35;;;;;;;3.60;2.42;;;;;;;;;;5022019;28;20033;-55
2022/07/13 03:43:00;;;;;;;2.53;2.25;;;;;;;;;;5022050;28;20059;-54
2022/07/13 03:45:25;;;;;;;2.40;2.15;;;;;;;;;;5023186;28;20021;-55
2022/07/13 03:47:51;;;;;;;7.78;4.80;;;;;;;;;;5021587;28;20029;-56
2022/07/13 03:50:16;;;;;;;9.73;5.05;;;;;;;;;;5024816;28;20068;-55
2022/07/13 03:52:42;;;;;;;4.28;3.30;;;;;;;;;;5022800;28;20029;-56
2022/07/13 03:55:08;;;;;;;5.20;3.40;;;;;;;;;;5027623;28;20499;-56
2022/07/13 03:57:34;;;;;;;5.60;3.60;;;;;;;;;;5028828;28;20507;-55
2022/07/13 03:59:59;;;;;;;4.15;2.90;;;;;;;;;;5028956;28;20116;-55
2022/07/13 04:02:25;;;;;;;6.63;2.60;;;;;;;;;;5026721;28;20120;-55
2022/07/13 04:04:50;;;;;;;4.13;3.05;;;;;;;;;;5026759;28;20087;-55
2022/07/13 04:07:16;;;;;;;2.60;2.40;;;;;;;;;;5028427;28;20053;-55
2022/07/13 04:09:41;;;;;;;4.18;2.53;;;;;;;;;;5026128;28;20022;-56
2022/07/13 04:12:07;;;;;;;4.10;2.70;;;;;;;;;;5024719;28;20041;-55
2022/07/13 04:14:32;;;;;;;3.88;2.63;;;;;;;;;;5028705;28;20028;-55
2022/07/13 04:16:57;;;;;;;3.05;2.60;;;;;;;;;;5026191;28;20047;-55
2022/07/13 04:19:23;;;;;;;3.17;2.63;;;;;;;;;;5022917;28;20025;-55
2022/07/13 04:21:48;;;;;;;2.83;2.60;;;;;;;;;;5022584;28;20029;-55
2022/07/13 04:24:14;;;;;;;6.05;2.65;;;;;;;;;;5024281;28;20029;-57
2022/07/13 04:26:39;;;;;;;2.85;2.65;;;;;;;;;;5023068;28;20029;-55
2022/07/13 04:29:04;;;;;;;4.05;2.22;;;;;;;;;;5024287;28;20446;-55
2022/07/13 04:31:30;;;;;;;2.80;2.40;;;;;;;;;;5021349;28;20127;-56
2022/07/13 04:33:55;;;;;;;2.75;2.50;;;;;;;;;;5027058;28;20069;-56
2022/07/13 04:36:21;;;;;;;2.80;2.50;;;;;;;;;;5022686;28;20030;-55
2022/07/13 04:38:46;;;;;;;6.28;2.90;;;;;;;;;;5028373;28;20014;-56
2022/07/13 04:41:11;;;;;;;4.35;3.05;;;;;;;;;;5026313;28;20028;-57
2022/07/13 04:43:37;;;;;;;4.15;2.80;;;;;;;;;;5024574;28;20021;-56
2022/07/13 04:46:03;;;;;;;4.10;2.70;;;;;;;;;;5022433;28;20088;-56
2022/07/13 04:48:29;;;;;;;4.57;2.40;;;;;;;;;;5031938;28;20198;-55
2022/07/13 04:50:55;;;;;;;3.63;2.55;;;;;;;;;;5024176;28;20116;-57
2022/07/13 04:53:20;;;;;;;5.13;2.85;;;;;;;;;;5029923;28;20033;-57
2022/07/13 04:55:46;;;;;;;3.53;2.60;;;;;;;;;;5029044;28;20079;-57
2022/07/13 04:58:11;;;;;;;4.40;2.30;;;;;;;;;;5031565;28;20032;-59
2022/07/13 05:00:37;;;;;;;6.32;2.80;;;;;;;;;;5030158;28;20025;-59
2022/07/13 05:03:03;;;;;;;4.63;2.78;;;;;;;;;;5030737;28;20048;-59
2022/07/13 05:05:31;;;;;;;4.47;2.88;;;;;;;;;;5030400;28;20029;-58
2022/07/13 05:07:59;;;;;;;6.05;3.28;;;;;;;;;;5029946;28;20029;-59
2022/07/13 05:10:24;;;;;;;3.63;2.70;;;;;;;;;;5026745;28;20559;-59
2022/07/13 05:12:49;;;;;;;4.05;2.80;;;;;;;;;;5029223;28;20033;-59
2022/07/13 05:15:15;;;;;;;21.77;3.58;;;;;;;;;;5027483;28;20117;-59
2022/07/13 05:17:40;;;;;;;5.85;3.60;;;;;;;;;;5029323;28;20025;-59
2022/07/13 05:20:07;;;;;;;5.20;4.10;;;;;;;;;;5033204;28;20034;-59
2022/07/13 05:22:32;;;;;;;6.40;3.88;;;;;;;;;;5029683;28;20107;-59
2022/07/13 05:24:59;;;;;;;5.65;3.40;;;;;;;;;;5026548;28;20049;-56
2022/07/13 05:27:24;;;;;;;5.20;3.15;;;;;;;;;;5024936;28;20022;-56
2022/07/13 05:29:50;;;;;;;3.78;3.47;;;;;;;;;;5032374;28;20029;-54
2022/07/13 05:32:16;;;;;;;5.75;3.38;;;;;;;;;;5027697;28;20029;-59
2022/07/13 05:34:42;;;;;;;4.78;3.40;;;;;;;;;;5022236;28;20029;-59
2022/07/13 05:37:07;;;;;;;3.22;2.72;;;;;;;;;;5024109;28;20034;-59
2022/07/13 05:39:32;;;;;;;4.60;3.20;;;;;;;;;;5030345;28;20048;-59
2022/07/13 05:41:58;;;;;;;3.40;2.70;;;;;;;;;;5024538;28;20022;-59
2022/07/13 05:44:23;;;;;;;3.75;2.92;;;;;;;;;;5025955;28;20083;-59
2022/07/13 05:46:49;;;;;;;5.40;3.42;;;;;;;;;;5019426;28;20104;-59
2022/07/13 05:49:14;;;;;;;4.68;3.25;;;;;;;;;;5020198;28;20121;-59
2022/07/13 05:51:40;;;;;;;5.35;2.97;;;;;;;;;;5026475;28;20108;-59
2022/07/13 05:54:05;;;;;;;4.88;2.80;;;;;;;;;;5026773;28;20025;-55
2022/07/13 05:56:30;;;;;;;6.40;3.03;;;;;;;;;;5027387;28;20550;-59
2022/07/13 05:58:56;;;;;;;3.20;2.90;;;;;;;;;;5025872;28;20048;-59
2022/07/13 06:01:21;;;;;;;3.25;2.75;;;;;;;;;;5027284;28;20037;-59
2022/07/13 06:03:47;;;;;;;3.78;2.80;;;;;;;;;;5026592;28;20029;-59
2022/07/13 06:06:12;;;;;;;5.00;2.80;;;;;;;;;;5026282;28;20026;-59
2022/07/13 06:08:38;;;;;;;3.80;3.05;;;;;;;;;;5026289;28;20030;-59
2022/07/13 06:11:04;;;;;;;4.25;2.80;;;;;;;;;;5027548;28;20029;-59
2022/07/13 06:13:29;;;;;;;3.10;2.85;;;;;;;;;;5026124;28;20033;-59
2022/07/13 06:15:57;;;;;;;3.13;2.58;;;;;;;;;;5024703;28;20033;-59
2022/07/13 06:18:22;;;;;;;3.20;2.90;;;;;;;;;;5026015;28;20029;-59
2022/07/13 06:20:48;;;;;;;3.58;2.90;;;;;;;;;;5025672;28;20033;-59
2022/07/13 06:23:15;;;;;;;5.13;3.85;;;;;;;;;;5027800;28;20399;-59
2022/07/13 06:25:41;;;;;;;4.00;3.05;;;;;;;;;;5021033;28;20496;-59
2022/07/13 06:28:07;;;;;;;5.70;3.55;;;;;;;;;;5026806;28;20045;-59
2022/07/13 06:30:33;;;;;;;5.68;3.35;;;;;;;;;;5028635;28;20036;-59
2022/07/13 06:32:59;;;;;;;4.18;3.15;;;;;;;;;;5027081;28;20052;-59
2022/07/13 06:35:24;;;;;;;4.82;2.78;;;;;;;;;;5024096;28;20037;-59
2022/07/13 06:37:50;;;;;;;5.13;2.80;;;;;;;;;;5022207;28;20021;-59
2022/07/13 06:40:15;;;;;;;5.22;2.80;;;;;;;;;;5027445;28;20036;-59
2022/07/13 06:42:41;;;;;;;5.55;3.17;;;;;;;;;;5022118;28;20033;-59
2022/07/13 06:45:07;;;;;;;4.03;2.50;;;;;;;;;;5025652;28;20029;-59
2022/07/13 06:47:32;;;;;;;2.63;2.42;;;;;;;;;;5012790;28;20037;-59
2022/07/13 06:49:57;;;;;;;3.38;2.78;;;;;;;;;;5017204;28;20060;-59
2022/07/13 06:52:23;;;;;;;5.47;2.63;;;;;;;;;;5028154;28;20033;-59
2022/07/13 06:54:48;;;;;;;3.20;2.90;;;;;;;;;;5023803;28;20076;-59
2022/07/13 06:57:14;;;;;;;4.18;2.80;;;;;;;;;;5011441;28;20144;-59
2022/07/13 06:59:39;;;;;;;5.45;2.63;;;;;;;;;;5025436;28;20017;-59
2022/07/13 07:02:05;;;;;;;5.55;2.60;;;;;;;;;;5026590;28;20060;-59
2022/07/13 07:04:31;;;;;;;3.30;2.60;;;;;;;;;;5026388;28;20028;-59
2022/07/13 07:06:56;;;;;;;5.82;2.53;;;;;;;;;;5024104;28;20118;-59
2022/07/13 07:09:22;;;;;;;3.03;2.70;;;;;;;;;;5024266;28;20026;-59
2022/07/13 07:11:48;;;;;;;4.90;2.65;;;;;;;;;;5026529;28;20072;-59
2022/07/13 07:14:14;;;;;;;3.72;2.15;;;;;;;;;;5027294;28;20047;-59
2022/07/13 07:16:39;;;;;;;3.08;2.60;;;;;;;;;;5022155;28;20467;-59
2022/07/13 07:19:05;;;;;;;3.35;2.50;;;;;;;;;;5026206;28;20049;-59
2022/07/13 07:21:30;;;;;;;6.20;3.28;;;;;;;;;;5025360;28;20553;-58
2022/07/13 07:23:55;;;;;;;6.28;3.15;;;;;;;;;;5024728;28;20437;-58
2022/07/13 07:26:21;;;;;;;3.72;3.38;;;;;;;;;;5025739;28;20463;-58
2022/07/13 07:28:46;;;;;;;2.70;2.50;;;;;;;;;;5023261;28;20502;-58
2022/07/13 07:31:12;;;;;;;3.65;2.80;;;;;;;;;;5024866;28;20032;-58
2022/07/13 07:33:37;;;;;;;3.78;2.50;;;;;;;;;;5024961;28;20034;-58
2022/07/13 07:36:03;;;;;;;4.88;2.55;;;;;;;;;;5022925;28;20489;-58
2022/07/13 07:38:29;;;;;;;2.80;2.50;;;;;;;;;;5025103;28;20025;-58
2022/07/13 07:40:54;;;;;;;4.03;2.42;;;;;;;;;;5019936;28;20064;-58
2022/07/13 07:43:19;;;;;;;4.50;2.58;;;;;;;;;;5025580;28;20034;-58
2022/07/13 07:45:45;;;;;;;3.20;2.30;;;;;;;;;;5027420;28;20028;-58
2022/07/13 07:48:10;;;;;;;2.80;2.10;;;;;;;;;;5016547;28;20033;-58
2022/07/13 07:50:36;;;;;;;4.82;2.15;;;;;;;;;;5017675;28;20025;-58
2022/07/13 07:53:01;;;;;;;3.60;2.38;;;;;;;;;;5021843;28;20033;-58
2022/07/13 07:55:27;;;;;;;3.38;2.50;;;;;;;;;;5026284;28;20108;-58
2022/07/13 07:57:53;;;;;;;3.75;2.70;;;;;;;;;;5023857;28;20410;-58
2022/07/13 08:00:20;;;;;;;3.13;2.42;;;;;;;;;;5021766;28;20030;-58
2022/07/13 08:02:45;;;;;;;3.20;2.47;;;;;;;;;;5024505;28;20347;-59
2022/07/13 08:05:11;;;;;;;4.30;2.55;;;;;;;;;;5026274;28;20026;-58
2022/07/13 08:07:43;;;;;;;2.67;2.47;;;;;;;;;;5022934;28;20036;-58
2022/07/13 08:10:13;;;;;;;4.60;2.75;;;;;;;;;;5023391;28;20042;-58
2022/07/13 08:12:39;;;;;;;6.30;2.45;;;;;;;;;;5016230;28;20087;-58
2022/07/13 08:15:07;;;;;;;3.58;2.45;;;;;;;;;;5029013;28;20434;-58
2022/07/13 08:17:34;;;;;;;3.60;2.50;;;;;;;;;;5028997;28;20025;-58
2022/07/13 08:20:00;;;;;;;4.90;3.13;;;;;;;;;;5030650;28;20070;-58
2022/07/13 08:22:25;;;;;;;3.78;2.80;;;;;;;;;;5028719;28;20053;-58
2022/07/13 08:24:50;;;;;;;4.57;2.42;;;;;;;;;;5027617;28;20025;-58
2022/07/13 08:27:16;;;;;;;2.63;2.10;;;;;;;;;;5030620;28;20525;-58
2022/07/13 08:29:42;;;;;;;3.53;2.17;;;;;;;;;;5030174;28;20028;-58
2022/07/13 08:32:08;;;;;;;2.60;1.80;;;;;;;;;;5031593;28;20029;-58
2022/07/13 08:40:06;;;;;;;3.03;2.10;;;;;;;;;;5029380;28;20075;-58
2022/07/13 08:42:31;;;;;;;4.15;2.40;;;;;;;;;;5029858;28;20435;-58
2022/07/13 08:44:57;;;;;;;2.28;2.00;;;;;;;;;;5031968;28;20025;-58
2022/07/13 08:47:24;;;;;;;3.50;2.30;;;;;;;;;;5029693;28;20026;-58
2022/07/13 08:49:52;;;;;;;2.60;2.30;;;;;;;;;;5026060;28;20076;-58
2022/07/13 08:52:18;;;;;;;2.35;2.15;;;;;;;;;;5030872;28;20487;-58
2022/07/13 08:54:43;;;;;;;2.95;2.28;;;;;;;;;;5031838;28;20673;-59
2022/07/13 08:57:09;;;;;;;5.13;2.53;;;;;;;;;;5028410;28;20132;-59
2022/07/13 08:59:34;;;;;;;3.35;2.25;;;;;;;;;;5028120;28;20025;-59
2022/07/13 09:02:01;;;;;;;6.65;2.75;;;;;;;;;;5027062;28;20058;-58
2022/07/13 09:08:02;;;;;;;3.05;2.70;;;;;;;;;;5031125;28;20610;-59
2022/07/13 09:10:28;;;;;;;4.00;2.08;;;;;;;;;;5029208;28;20033;-58
2022/07/13 09:12:54;;;;;;;3.63;2.53;;;;;;;;;;5028905;28;20025;-58
2022/07/13 09:15:19;;;;;;;4.07;2.47;;;;;;;;;;5032202;28;20068;-59
2022/07/13 09:17:44;;;;;;;4.07;2.38;;;;;;;;;;5029141;28;20059;-58
2022/07/13 09:20:10;;;;;;;3.75;2.17;;;;;;;;;;5032587;28;20410;-58
2022/07/13 09:22:45;;;;;;;3.33;2.35;;;;;;;;;;5027163;28;20029;-58
2022/07/13 09:25:14;;;;;;;3.92;2.22;;;;;;;;;;5025866;28;20374;-59
2022/07/13 09:27:50;;;;;;;3.63;2.80;;;;;;;;;;5027861;28;20163;-59
2022/07/13 09:30:23;;;;;;;3.47;2.67;;;;;;;;;;5026365;28;20057;-59
2022/07/13 09:32:50;;;;;;;7.78;2.30;;;;;;;;;;5023825;28;20025;-59
2022/07/13 09:35:15;;;;;;;5.55;2.65;;;;;;;;;;5025184;28;20032;-59
2022/07/13 09:37:41;;;;;;;2.85;2.47;;;;;;;;;;5025643;28;20025;-59
2022/07/13 09:40:07;;;;;;;3.63;2.15;;;;;;;;;;5022640;28;20025;-59
2022/07/13 09:42:37;;;;;;;3.25;2.50;;;;;;;;;;5021810;28;20517;-59
2022/07/13 09:47:54;;;;;;;4.47;2.15;;;;;;;;;;5021667;28;20419;-59
2022/07/13 09:50:37;;;;;;;6.03;2.50;;;;;;;;;;5028064;28;20098;-59
2022/07/13 09:53:03;;;;;;;2.42;2.22;;;;;;;;;;5028025;28;20036;-59
2022/07/13 09:55:32;;;;;;;4.50;2.40;;;;;;;;;;5026648;28;20037;-59
2022/07/13 09:58:02;;;;;;;3.95;2.20;;;;;;;;;;5026012;28;20507;-59
2022/07/13 10:00:28;;;;;;;7.97;2.45;;;;;;;;;;5026710;28;20026;-59
2022/07/13 10:02:54;;;;;;;2.70;2.00;;;;;;;;;;5027913;28;20052;-59
2022/07/13 10:05:19;;;;;;;3.28;2.30;;;;;;;;;;5026568;28;20152;-59
2022/07/13 10:07:47;;;;;;;4.20;2.63;;;;;;;;;;5024032;28;20515;-59
2022/07/13 10:10:14;;;;;;;3.60;2.00;;;;;;;;;;5024084;28;20042;-59
2022/07/13 10:12:41;;;;;;;5.53;2.22;;;;;;;;;;5027309;28;20513;-59
2022/07/13 10:15:07;;;;;;;4.03;2.75;;;;;;;;;;5025320;28;20033;-59
2022/07/13 10:17:33;;;;;;;4.93;2.70;;;;;;;;;;5023816;28;20025;-59
2022/07/13 10:20:05;;;;;;;2.72;2.30;;;;;;;;;;5025475;28;20018;-60
2022/07/13 10:22:34;;;;;;;4.18;2.30;;;;;;;;;;5026899;28;20027;-60
2022/07/13 10:25:00;;;;;;;3.13;2.30;;;;;;;;;;5028839;28;20086;-59
2022/07/13 10:27:31;;;;;;;4.25;2.30;;;;;;;;;;5020798;28;20503;-59
2022/07/13 10:30:21;;;;;;;4.28;2.22;;;;;;;;;;5014367;28;20030;-59
2022/07/13 10:32:47;;;;;;;3.13;2.30;;;;;;;;;;5024502;28;20303;-59
2022/07/13 10:35:16;;;;;;;3.13;2.10;;;;;;;;;;5026820;28;20026;-60
2022/07/13 10:38:00;;;;;;;4.68;2.55;;;;;;;;;;5022023;28;20125;-60
2022/07/13 10:40:27;;;;;;;2.30;2.10;;;;;;;;;;5024363;28;20037;-60
2022/07/13 10:43:03;;;;;;;2.63;2.08;;;;;;;;;;5022378;28;20159;-60
2022/07/13 10:48:24;;;;;;;2.28;2.08;;;;;;;;;;5020309;28;20056;-60
2022/07/13 10:50:53;;;;;;;2.70;1.98;;;;;;;;;;5020441;28;20492;-60
2022/07/13 10:53:19;;;;;;;2.75;1.75;;;;;;;;;;5015777;28;20030;-60
2022/07/13 10:55:49;;;;;;;4.25;2.08;;;;;;;;;;5022086;28;20288;-60
2022/07/13 10:58:30;;;;;;;5.13;2.58;;;;;;;;;;5024482;28;20033;-60
2022/07/13 11:00:56;;;;;;;2.58;2.00;;;;;;;;;;5022712;28;20257;-60
2022/07/13 11:03:37;;;;;;;3.17;1.80;;;;;;;;;;5022240;28;20029;-60
2022/07/13 11:06:15;;;;;;;4.32;2.10;;;;;;;;;;5031164;28;20043;-60
2022/07/13 11:08:41;;;;;;;3.42;1.90;;;;;;;;;;5022135;28;20033;-60
2022/07/13 11:11:16;;;;;;;3.28;2.00;;;;;;;;;;5020897;28;20030;-60
2022/07/13 11:13:44;;;;;;;7.18;2.20;;;;;;;;;;5020885;28;20021;-60
2022/07/13 11:16:12;;;;;;;2.00;1.80;;;;;;;;;;5023929;28;20060;-60
2022/07/13 11:18:38;;;;;;;3.35;1.90;;;;;;;;;;5021858;28;20094;-60
2022/07/13 11:21:15;;;;;;;4.97;1.80;;;;;;;;;;5024950;28;20029;-60
2022/07/13 11:26:44;;;;;;;3.75;1.90;;;;;;;;;;5023348;28;20091;-60
2022/07/13 11:29:24;;;;;;;6.38;1.65;;;;;;;;;;5020620;28;20041;-60
2022/07/13 11:32:02;;;;;;;2.63;1.35;;;;;;;;;;5020984;28;20151;-61
2022/07/13 11:34:28;;;;;;;;;;;;;;;;;;5014422;28;20104;-61
2022/07/13 11:36:55;;;;;;;2.15;1.92;;;;;;;;;;5017916;28;20396;-60
2022/07/13 11:39:25;;;;;;;1.80;1.70;;;;;;;;;;5017196;28;20094;-60
2022/07/13 11:41:51;;;;;;;4.18;1.48;;;;;;;;;;5014791;28;20025;-60
2022/07/13 11:44:22;;;;;;;4.22;2.00;;;;;;;;;;5013425;28;20021;-61
2022/07/13 11:46:47;;;;;;;2.67;1.77;;;;;;;;;;5013195;28;20030;-60
2022/07/13 11:49:13;;;;;;;4.05;2.00;;;;;;;;;;5017655;28;20045;-60
2022/07/13 11:51:42;;;;;;;2.17;1.60;;;;;;;;;;5016388;28;20108;-60
2022/07/13 11:54:08;;;;;;;2.35;1.70;;;;;;;;;;5013379;28;20141;-60
2022/07/13 11:56:34;;;;;;;3.55;1.50;;;;;;;;;;5015900;28;20112;-60
2022/07/13 11:58:59;;;;;;;3.60;1.70;;;;;;;;;;5019342;28;20104;-60
2022/07/13 12:01:25;;;;;;;1.85;1.50;;;;;;;;;;5014189;28;20029;-61
2022/07/13 12:03:51;;;;;;;3.00;1.50;;;;;;;;;;5016560;28;20026;-60
2022/07/13 12:06:18;;;;;;;2.70;1.67;;;;;;;;;;5014259;28;20041;-60
2022/07/13 12:08:44;;;;;;;1.80;1.63;;;;;;;;;;5019314;28;20041;-60
2022/07/13 12:11:17;;;;;;;2.63;1.50;;;;;;;;;;5017239;28;20308;-60
2022/07/13 12:13:44;;;;;;;5.40;1.48;;;;;;;;;;5017283;28;20088;-60
2022/07/13 12:16:12;;;;;;;1.83;1.13;;;;;;;;;;5012589;28;20032;-60
2022/07/13 12:19:01;;;;;;;2.85;1.58;;;;;;;;;;5012685;28;20043;-60
2022/07/13 12:21:27;;;;;;;3.05;1.30;;;;;;;;;;5013649;28;20033;-61
2022/07/13 12:23:52;;;;;;;6.43;1.80;;;;;;;;;;5011796;28;20030;-60
2022/07/13 12:26:18;;;;;;;4.80;1.40;;;;;;;;;;5014740;28;20022;-60
2022/07/13 12:28:43;;;;;;;1.60;1.38;;;;;;;;;;5015596;28;20053;-60
2022/07/13 12:31:09;;;;;;;3.83;1.42;;;;;;;;;;5014348;28;20029;-60
2022/07/13 12:33:44;;;;;;;2.05;1.38;;;;;;;;;;5014521;28;20068;-60
2022/07/13 12:36:10;;;;;;;1.40;1.30;;;;;;;;;;5012424;28;20038;-61
2022/07/13 12:38:54;;;;;;;2.15;1.40;;;;;;;;;;5014835;28;20084;-61
2022/07/13 12:41:40;;;;;;;2.38;1.20;;;;;;;;;;5013539;28;20037;-61
2022/07/13 12:44:07;;;;;;;3.28;1.33;;;;;;;;;;5014539;28;20057;-61
2022/07/13 12:46:50;;;;;;;1.25;1.15;;;;;;;;;;5014159;28;20487;-61
2022/07/13 12:49:16;;;;;;;1.10;1.00;;;;;;;;;;5014796;28;20112;-61
2022/07/13 12:51:52;;;;;;;1.88;1.23;;;;;;;;;;5012232;28;20124;-61
2022/07/13 12:54:50;;;;;;;2.40;1.10;;;;;;;;;;5022242;28;20033;-60
2022/07/13 12:57:19;;;;;;;3.10;1.35;;;;;;;;;;5022635;28;20029;-61
2022/07/13 12:59:57;;;;;;;4.88;1.50;;;;;;;;;;5024775;28;20554;-62
2022/07/13 13:02:22;;;;;;;2.53;1.00;;;;;;;;;;5027092;28;20103;-61
2022/07/13 13:04:47;;;;;;;1.27;1.17;;;;;;;;;;5023255;28;20554;-60
2022/07/13 13:07:13;;;;;;;2.20;1.30;;;;;;;;;;5028586;28;20025;-60
2022/07/13 13:09:39;;;;;;;3.92;1.20;;;;;;;;;;5028765;28;20036;-59
2022/07/13 13:12:05;;;;;;;2.63;1.20;;;;;;;;;;5029989;28;20039;-61
2022/07/13 13:14:30;;;;;;;1.73;1.35;;;;;;;;;;5025644;28;20025;-60
2022/07/13 13:16:55;;;;;;;3.25;1.17;;;;;;;;;;5025157;28;20419;-60
2022/07/13 13:19:21;;;;;;;4.07;1.20;;;;;;;;;;5025612;28;20029;-60
2022/07/13 13:21:46;;;;;;;5.00;1.10;;;;;;;;;;5027213;28;20037;-59
2022/07/13 13:24:12;;;;;;;1.15;1.05;;;;;;;;;;5025266;28;20482;-60
2022/07/13 13:26:44;;;;;;;2.17;1.00;;;;;;;;;;5025509;28;20033;-60
2022/07/13 13:31:55;;;;;;;1.20;1.08;;;;;;;;;;5023373;28;20085;-59
2022/07/13 13:34:21;;;;;;;1.67;1.30;;;;;;;;;;5026065;28;20052;-60
2022/07/13 13:36:47;;;;;;;8.20;2.08;;;;;;;;;;5021546;28;20480;-59
2022/07/13 13:39:12;;;;;;;4.00;1.60;;;;;;;;;;5021157;28;20034;-60
2022/07/13 13:41:38;;;;;;;3.75;1.20;;;;;;;;;;5029406;28;20029;-59
2022/07/13 13:44:03;;;;;;;4.95;1.20;;;;;;;;;;5019470;28;20435;-60
2022/07/13 13:46:29;;;;;;;1.73;1.33;;;;;;;;;;5028326;28;20064;-60
2022/07/13 13:48:54;;;;;;;3.20;1.00;;;;;;;;;;5029655;28;20842;-61
2022/07/13 13:51:20;;;;;;;2.38;1.20;;;;;;;;;;5028145;28;20478;-60
2022/07/13 13:53:45;;;;;;;2.42;0.93;;;;;;;;;;5042090;28;20029;-60
2022/07/13 13:56:11;;;;;;;2.35;0.98;;;;;;;;;;5025290;28;20065;-59
2022/07/13 13:58:36;;;;;;;3.97;1.30;;;;;;;;;;5028707;28;20086;-59
2022/07/13 14:01:02;;;;;;;2.85;1.00;;;;;;;;;;5028217;28;20090;-60
2022/07/13 14:03:28;;;;;;;1.10;1.00;;;;;;;;;;5027200;28;20033;-60
2022/07/13 14:05:54;;;;;;;2.30;1.20;;;;;;;;;;5025759;28;20044;-60
2022/07/13 14:08:19;;;;;;;1.30;1.08;;;;;;;;;;5027440;28;20041;-60
2022/07/13 14:10:46;;;;;;;4.15;1.10;;;;;;;;;;5027559;28;20017;-59
2022/07/13 14:13:12;;;;;;;3.88;1.00;;;;;;;;;;5028516;28;20438;-60
2022/07/13 14:15:37;;;;;;;2.10;1.08;;;;;;;;;;5022536;28;20057;-60
2022/07/13 14:18:02;;;;;;;1.55;1.10;;;;;;;;;;5028246;28;20033;-60
2022/07/13 14:20:28;;;;;;;2.58;1.17;;;;;;;;;;5026635;28;20056;-59
2022/07/13 14:22:53;;;;;;;1.77;1.02;;;;;;;;;;5022258;28;20037;-58
2022/07/13 14:25:19;;;;;;;1.73;0.90;;;;;;;;;;5026595;28;20033;-59
2022/07/13 14:27:45;;;;;;;4.50;1.08;;;;;;;;;;5023320;28;20030;-60
2022/07/13 14:30:11;;;;;;;1.20;1.00;;;;;;;;;;5024395;28;20553;-60
2022/07/13 14:32:36;;;;;;;1.10;1.00;;;;;;;;;;5026803;28;20158;-59
2022/07/13 14:35:02;;;;;;;1.98;1.05;;;;;;;;;;5021660;28;20043;-60
2022/07/13 14:37:28;;;;;;;1.10;1.00;;;;;;;;;;5023203;28;20028;-60
2022/07/13 14:39:54;;;;;;;3.22;1.20;;;;;;;;;;5022141;28;20029;-59
2022/07/13 14:42:19;;;;;;;2.47;1.60;;;;;;;;;;5019876;28;20048;-59
2022/07/13 14:44:44;;;;;;;5.28;1.88;;;;;;;;;;5029035;28;20404;-59
2022/07/13 14:47:10;;;;;;;2.53;1.30;;;;;;;;;;5024198;28;20030;-59
2022/07/13 14:49:35;;;;;;;2.08;1.75;;;;;;;;;;5027799;28;20455;-60
2022/07/13 14:52:01;;;;;;;1.80;1.48;;;;;;;;;;5026649;28;20148;-60
2022/07/13 14:54:27;;;;;;;3.05;1.50;;;;;;;;;;5024348;28;20056;-60
2022/07/13 14:56:54;;;;;;;3.63;1.60;;;;;;;;;;5015662;28;20061;-57
2022/07/13 14:59:24;;;;;;;3.15;1.88;;;;;;;;;;5016745;28;20036;-59
2022/07/13 15:01:49;;;;;;;4.20;1.88;;;;;;;;;;5012927;28;20029;-59